Time;durP1;ratioP1;P1;durP2;ratioP2;P2;SDS_P1;SDS_P2;PMS_P1;PMS_P2;Temp;Humidity;BMP_temperature;BMP_pressure;BME280_temperature;BME280_humidity;BME280_pressure;Samples;Min_cycle;Max_cycle;Signal;HPM_P1;HPM_P2
2023/04/17 00:01:37;;;;;;;96.22;40.55;;;;;;;;;;5042154;28;20472;-73
2023/04/17 00:04:04;;;;;;;93.53;41.40;;;;;;;;;;5025161;28;20053;-73
2023/04/17 00:06:32;;;;;;;94.45;39.42;;;;;;;;;;5014107;28;20056;-74
2023/04/17 00:08:59;;;;;;;99.35;42.22;;;;;;;;;;5025977;28;20060;-74
2023/04/17 00:11:25;;;;;;;93.53;40.63;;;;;;;;;;5026681;28;20041;-73
2023/04/17 00:13:51;;;;;;;90.55;41.17;;;;;;;;;;5026556;28;20076;-73
2023/04/17 00:16:17;;;;;;;93.82;41.90;;;;;;;;;;5025254;28;20435;-74
2023/04/17 00:18:43;;;;;;;94.00;40.20;;;;;;;;;;5026695;28;20919;-74
2023/04/17 00:21:09;;;;;;;96.38;41.28;;;;;;;;;;5024726;28;20045;-75
2023/04/17 00:23:35;;;;;;;99.72;42.80;;;;;;;;;;5027264;28;20107;-75
2023/04/17 00:26:01;;;;;;;97.13;40.85;;;;;;;;;;5026559;28;20034;-74
2023/04/17 00:28:27;;;;;;;91.32;41.20;;;;;;;;;;5027382;28;20045;-75
2023/04/17 00:30:53;;;;;;;90.88;41.30;;;;;;;;;;5023223;28;20481;-73
2023/04/17 00:33:19;;;;;;;92.57;40.30;;;;;;;;;;5026096;28;20049;-74
2023/04/17 00:35:45;;;;;;;90.82;41.35;;;;;;;;;;5027806;28;20053;-74
2023/04/17 00:38:11;;;;;;;85.88;39.58;;;;;;;;;;5024305;28;20049;-75
2023/04/17 00:40:37;;;;;;;89.80;40.75;;;;;;;;;;5027787;28;21416;-74
2023/04/17 00:43:03;;;;;;;92.85;40.78;;;;;;;;;;5026416;28;20055;-74
2023/04/17 00:45:30;;;;;;;92.72;41.50;;;;;;;;;;5027747;28;20049;-74
2023/04/17 00:48:00;;;;;;;87.18;40.28;;;;;;;;;;5025147;28;20482;-75
2023/04/17 00:50:29;;;;;;;88.90;38.88;;;;;;;;;;5024514;28;20049;-74
2023/04/17 00:52:55;;;;;;;95.80;40.38;;;;;;;;;;5026265;28;20056;-75
2023/04/17 00:55:21;;;;;;;99.53;42.40;;;;;;;;;;5024789;28;20686;-74
2023/04/17 00:57:50;;;;;;;96.10;41.50;;;;;;;;;;5026673;28;20052;-75
2023/04/17 01:00:17;;;;;;;95.47;41.75;;;;;;;;;;5024164;28;20041;-75
2023/04/17 01:02:46;;;;;;;99.40;42.38;;;;;;;;;;5025969;28;20099;-74
2023/04/17 01:05:12;;;;;;;100.43;42.25;;;;;;;;;;5026450;28;20076;-73
2023/04/17 01:07:40;;;;;;;101.30;43.70;;;;;;;;;;5024214;28;20037;-74
2023/04/17 01:10:06;;;;;;;102.57;43.85;;;;;;;;;;5025942;28;20049;-75
2023/04/17 01:12:32;;;;;;;98.10;43.40;;;;;;;;;;5024593;28;20043;-74
2023/04/17 01:14:58;;;;;;;96.40;42.15;;;;;;;;;;5025718;28;20053;-75
2023/04/17 01:17:27;;;;;;;101.90;42.90;;;;;;;;;;5023674;28;20485;-75
2023/04/17 01:19:53;;;;;;;;;;;;;;;;;;5025562;28;20627;-75
2023/04/17 01:22:19;;;;;;;110.70;45.28;;;;;;;;;;5023345;28;19925;-74
2023/04/17 01:24:45;;;;;;;105.32;44.08;;;;;;;;;;5026800;28;20505;-74
2023/04/17 01:27:14;;;;;;;108.65;44.92;;;;;;;;;;5025774;28;20532;-75
2023/04/17 01:29:41;;;;;;;105.80;43.80;;;;;;;;;;5023459;28;20594;-74
2023/04/17 01:32:07;;;;;;;102.13;45.05;;;;;;;;;;5023938;28;20498;-74
2023/04/17 01:34:33;;;;;;;105.20;44.17;;;;;;;;;;5024058;28;20575;-74
2023/04/17 01:37:00;;;;;;;107.93;44.47;;;;;;;;;;5024146;28;20057;-73
2023/04/17 01:39:26;;;;;;;105.00;43.42;;;;;;;;;;5041018;28;20103;-75
2023/04/17 01:41:53;;;;;;;106.60;43.05;;;;;;;;;;5041512;28;20453;-74
2023/04/17 01:44:19;;;;;;;110.25;44.05;;;;;;;;;;5024560;28;20409;-75
2023/04/17 01:46:45;;;;;;;125.05;46.00;;;;;;;;;;5024684;28;20048;-74
2023/04/17 01:49:11;;;;;;;112.95;44.83;;;;;;;;;;5025526;28;20041;-74
2023/04/17 01:51:37;;;;;;;116.30;46.15;;;;;;;;;;5022416;28;20057;-74
2023/04/17 01:54:03;;;;;;;112.57;45.40;;;;;;;;;;5025362;28;20528;-74
2023/04/17 01:56:29;;;;;;;108.35;44.30;;;;;;;;;;4993943;28;20045;-74
2023/04/17 01:58:55;;;;;;;158.15;47.88;;;;;;;;;;5025892;28;20120;-73
2023/04/17 02:01:21;;;;;;;121.13;45.35;;;;;;;;;;5023431;28;20456;-74
2023/04/17 02:03:47;;;;;;;107.55;43.92;;;;;;;;;;5023823;28;20060;-74
2023/04/17 02:06:14;;;;;;;121.60;46.88;;;;;;;;;;5023735;28;20053;-74
2023/04/17 02:08:40;;;;;;;121.88;47.30;;;;;;;;;;5023606;28;20029;-74
2023/04/17 02:11:06;;;;;;;117.80;44.88;;;;;;;;;;5024595;28;20132;-73
2023/04/17 02:13:32;;;;;;;126.53;47.15;;;;;;;;;;5023147;28;20041;-73
2023/04/17 02:15:58;;;;;;;115.65;43.88;;;;;;;;;;5018393;28;20096;-73
2023/04/17 02:18:25;;;;;;;121.35;45.10;;;;;;;;;;5023960;28;20038;-74
2023/04/17 02:20:51;;;;;;;124.32;45.20;;;;;;;;;;5023114;28;20145;-74
2023/04/17 02:23:18;;;;;;;133.95;45.58;;;;;;;;;;5023691;28;20052;-74
2023/04/17 02:25:44;;;;;;;118.57;44.58;;;;;;;;;;5024803;28;20064;-74
2023/04/17 02:28:10;;;;;;;125.03;45.00;;;;;;;;;;5025172;28;20041;-74
2023/04/17 02:30:36;;;;;;;124.68;45.30;;;;;;;;;;5024823;28;20047;-73
2023/04/17 02:33:02;;;;;;;109.88;43.35;;;;;;;;;;5024323;28;20133;-74
2023/04/17 02:35:29;;;;;;;120.07;44.22;;;;;;;;;;5023492;28;20041;-74
2023/04/17 02:37:55;;;;;;;110.90;44.30;;;;;;;;;;5024115;28;20380;-73
2023/04/17 02:40:22;;;;;;;130.82;45.33;;;;;;;;;;5024636;28;21128;-74
2023/04/17 02:42:48;;;;;;;119.50;42.13;;;;;;;;;;5024214;28;20532;-73
2023/04/17 02:45:14;;;;;;;121.90;43.90;;;;;;;;;;5024005;28;20088;-75
2023/04/17 02:47:40;;;;;;;166.85;48.90;;;;;;;;;;5022780;28;20049;-74
2023/04/17 02:50:06;;;;;;;153.68;46.67;;;;;;;;;;5024601;28;20107;-75
2023/04/17 02:52:32;;;;;;;162.18;46.97;;;;;;;;;;5022146;28;20129;-74
2023/04/17 02:54:58;;;;;;;156.00;48.00;;;;;;;;;;5023231;28;20099;-74
2023/04/17 02:57:25;;;;;;;159.18;47.35;;;;;;;;;;5023430;28;20508;-74
2023/04/17 02:59:51;;;;;;;150.38;47.22;;;;;;;;;;5023925;28;20124;-74
2023/04/17 03:02:20;;;;;;;168.40;47.08;;;;;;;;;;5023693;28;20057;-73
2023/04/17 03:04:50;;;;;;;163.25;46.53;;;;;;;;;;5023033;28;20172;-75
2023/04/17 03:07:19;;;;;;;173.52;48.50;;;;;;;;;;5024599;28;20045;-75
2023/04/17 03:09:46;;;;;;;149.55;47.03;;;;;;;;;;5021998;28;20906;-75
2023/04/17 03:12:16;;;;;;;138.73;44.00;;;;;;;;;;5023534;28;20049;-75
2023/04/17 03:14:42;;;;;;;134.55;45.22;;;;;;;;;;5023092;28;20053;-75
2023/04/17 03:17:09;;;;;;;163.00;45.33;;;;;;;;;;5023709;28;20575;-75
2023/04/17 03:19:35;;;;;;;129.20;43.42;;;;;;;;;;5023170;28;20061;-75
2023/04/17 03:22:01;;;;;;;149.10;44.03;;;;;;;;;;5022274;28;20095;-75
2023/04/17 03:24:27;;;;;;;128.90;41.97;;;;;;;;;;5023573;28;20057;-75
2023/04/17 03:26:53;;;;;;;200.48;45.03;;;;;;;;;;5022406;28;20034;-76
2023/04/17 03:29:19;;;;;;;165.43;43.28;;;;;;;;;;5023884;28;20068;-75
2023/04/17 03:31:45;;;;;;;149.85;44.05;;;;;;;;;;5022017;28;20045;-75
2023/04/17 03:34:11;;;;;;;176.98;45.95;;;;;;;;;;5023505;28;20375;-75
2023/04/17 03:36:37;;;;;;;179.48;44.47;;;;;;;;;;5022606;28;20076;-75
2023/04/17 03:39:03;;;;;;;158.45;44.08;;;;;;;;;;5024123;28;20033;-75
2023/04/17 03:41:29;;;;;;;162.82;42.47;;;;;;;;;;5022798;28;20050;-75
2023/04/17 03:43:55;;;;;;;155.85;44.60;;;;;;;;;;5021400;28;20375;-75
2023/04/17 03:46:21;;;;;;;144.73;41.97;;;;;;;;;;5023803;28;20057;-74
2023/04/17 03:48:47;;;;;;;179.32;44.85;;;;;;;;;;5021938;28;20580;-75
2023/04/17 03:51:14;;;;;;;183.82;45.63;;;;;;;;;;5022415;28;20085;-75
2023/04/17 03:53:40;;;;;;;135.07;42.33;;;;;;;;;;5024829;28;20846;-75
2023/04/17 03:56:06;;;;;;;131.20;41.10;;;;;;;;;;5026781;28;20041;-75
2023/04/17 03:58:32;;;;;;;160.27;43.50;;;;;;;;;;5025776;28;20041;-75
2023/04/17 04:01:00;;;;;;;140.57;43.45;;;;;;;;;;5025122;28;20111;-75
2023/04/17 04:03:27;;;;;;;138.23;40.90;;;;;;;;;;5027524;28;20044;-75
2023/04/17 04:05:53;;;;;;;154.75;41.63;;;;;;;;;;5026030;28;20060;-75
2023/04/17 04:08:19;;;;;;;191.27;43.55;;;;;;;;;;5022169;28;20123;-75
2023/04/17 04:10:46;;;;;;;197.07;44.97;;;;;;;;;;5016718;28;20160;-75
2023/04/17 04:13:12;;;;;;;139.52;42.60;;;;;;;;;;5026342;28;20083;-75
2023/04/17 04:15:38;;;;;;;155.05;41.95;;;;;;;;;;5026305;28;20076;-75
2023/04/17 04:18:04;;;;;;;151.43;42.70;;;;;;;;;;5025665;28;20077;-75
2023/04/17 04:20:31;;;;;;;149.43;41.40;;;;;;;;;;5025787;28;20128;-75
2023/04/17 04:22:58;;;;;;;142.75;41.85;;;;;;;;;;5024862;28;20089;-75
2023/04/17 04:25:24;;;;;;;146.23;43.10;;;;;;;;;;5026798;28;20061;-76
2023/04/17 04:27:50;;;;;;;127.68;42.05;;;;;;;;;;5025121;28;20037;-75
2023/04/17 04:30:16;;;;;;;229.63;46.83;;;;;;;;;;5027373;28;20048;-75
2023/04/17 04:32:46;;;;;;;146.60;42.42;;;;;;;;;;5024675;28;20133;-75
2023/04/17 04:35:12;;;;;;;170.75;44.42;;;;;;;;;;5015607;28;20413;-74
2023/04/17 04:37:41;;;;;;;170.80;43.70;;;;;;;;;;5023714;28;20072;-75
2023/04/17 04:40:10;;;;;;;;;;;;;;;;;;5025039;28;20517;-74
2023/04/17 04:42:36;;;;;;;271.20;46.88;;;;;;;;;;5026206;28;19921;-75
2023/04/17 04:45:03;;;;;;;232.63;45.75;;;;;;;;;;5024774;28;20053;-75
2023/04/17 04:47:29;;;;;;;321.25;48.47;;;;;;;;;;5026176;28;20096;-75
2023/04/17 04:49:55;;;;;;;299.70;49.00;;;;;;;;;;5025370;28;20150;-75
2023/04/17 04:52:21;;;;;;;301.55;51.13;;;;;;;;;;5026111;28;20504;-74
2023/04/17 04:54:47;;;;;;;250.18;48.05;;;;;;;;;;5027182;28;20144;-75
2023/04/17 04:57:13;;;;;;;220.20;47.90;;;;;;;;;;5025424;28;20062;-76
2023/04/17 04:59:39;;;;;;;298.40;47.00;;;;;;;;;;5025394;28;20511;-75
2023/04/17 05:02:05;;;;;;;337.77;50.15;;;;;;;;;;5023560;28;20037;-74
2023/04/17 05:04:31;;;;;;;290.40;48.08;;;;;;;;;;5025780;28;20164;-74
2023/04/17 05:06:57;;;;;;;257.08;45.97;;;;;;;;;;5012029;28;20043;-76
2023/04/17 05:09:23;;;;;;;206.10;47.05;;;;;;;;;;5025658;28;20099;-75
2023/04/17 05:11:52;;;;;;;313.67;49.65;;;;;;;;;;5012972;28;20053;-74
2023/04/17 05:14:18;;;;;;;259.25;45.85;;;;;;;;;;5025141;28;20505;-75
2023/04/17 05:16:44;;;;;;;241.05;45.20;;;;;;;;;;5025132;28;20132;-75
2023/04/17 05:19:10;;;;;;;244.52;41.42;;;;;;;;;;5026337;28;20571;-76
2023/04/17 05:21:36;;;;;;;263.67;47.83;;;;;;;;;;5028417;28;20049;-76
2023/04/17 05:24:02;;;;;;;262.70;47.22;;;;;;;;;;5027508;28;20389;-75
2023/04/17 05:26:28;;;;;;;221.82;44.25;;;;;;;;;;5028815;28;20523;-76
2023/04/17 05:28:54;;;;;;;273.17;45.92;;;;;;;;;;5027745;28;20124;-75
2023/04/17 05:31:21;;;;;;;275.67;46.92;;;;;;;;;;5011213;28;20047;-75
2023/04/17 05:33:47;;;;;;;278.55;47.38;;;;;;;;;;5043701;28;20087;-75
2023/04/17 05:36:13;;;;;;;269.45;49.90;;;;;;;;;;5011233;28;20055;-75
2023/04/17 05:38:38;;;;;;;332.42;52.55;;;;;;;;;;5045851;28;20045;-74
2023/04/17 05:41:07;;;;;;;393.80;54.08;;;;;;;;;;5026339;28;20094;-76
2023/04/17 05:43:33;;;;;;;256.98;50.72;;;;;;;;;;5028196;28;20662;-75
2023/04/17 05:45:59;;;;;;;264.27;51.47;;;;;;;;;;5043817;28;20102;-74
2023/04/17 05:48:25;;;;;;;411.35;57.83;;;;;;;;;;5027848;28;20139;-75
2023/04/17 05:50:51;;;;;;;238.52;49.28;;;;;;;;;;5043846;28;20135;-74
2023/04/17 05:53:17;;;;;;;237.80;51.45;;;;;;;;;;5010939;28;20765;-74
2023/04/17 05:55:43;;;;;;;259.55;49.08;;;;;;;;;;5044319;28;20037;-75
2023/04/17 05:58:09;;;;;;;308.58;51.80;;;;;;;;;;5026719;28;20055;-74
2023/04/17 06:00:35;;;;;;;284.38;48.90;;;;;;;;;;5016246;28;20408;-74
2023/04/17 06:03:03;;;;;;;171.00;45.35;;;;;;;;;;5026571;28;20084;-75
2023/04/17 06:05:29;;;;;;;202.18;43.83;;;;;;;;;;5034170;28;20138;-75
2023/04/17 06:07:55;;;;;;;170.50;44.10;;;;;;;;;;5025768;28;20076;-74
2023/04/17 06:10:21;;;;;;;157.45;45.80;;;;;;;;;;5044480;28;20059;-75
2023/04/17 06:12:47;;;;;;;206.23;45.70;;;;;;;;;;5045438;28;20463;-74
2023/04/17 06:15:13;;;;;;;143.95;46.50;;;;;;;;;;5026974;28;20079;-75
2023/04/17 06:17:39;;;;;;;117.45;42.63;;;;;;;;;;5044972;28;20091;-75
2023/04/17 06:20:09;;;;;;;129.25;45.70;;;;;;;;;;5025653;28;20127;-75
2023/04/17 06:22:35;;;;;;;121.65;44.20;;;;;;;;;;5045330;28;20040;-75
2023/04/17 06:25:01;;;;;;;99.03;41.70;;;;;;;;;;5026237;28;20563;-75
2023/04/17 06:27:27;;;;;;;105.75;42.75;;;;;;;;;;5026974;28;20555;-75
2023/04/17 06:29:53;;;;;;;103.18;43.33;;;;;;;;;;5026260;28;20040;-75
2023/04/17 06:32:19;;;;;;;91.15;41.22;;;;;;;;;;5025916;28;20576;-76
2023/04/17 06:34:45;;;;;;;94.47;42.05;;;;;;;;;;5027666;28;20049;-74
2023/04/17 06:37:11;;;;;;;117.20;45.33;;;;;;;;;;5024274;28;20828;-74
2023/04/17 06:39:37;;;;;;;97.90;43.67;;;;;;;;;;5045723;28;20045;-76
2023/04/17 06:42:05;;;;;;;95.90;43.08;;;;;;;;;;5026386;28;20045;-75
2023/04/17 06:44:31;;;;;;;87.15;41.38;;;;;;;;;;5028035;28;20068;-74
2023/04/17 06:46:57;;;;;;;103.88;41.85;;;;;;;;;;5025111;28;20489;-74
2023/04/17 06:49:23;;;;;;;84.82;41.40;;;;;;;;;;5027622;28;20053;-74
2023/04/17 06:51:50;;;;;;;79.53;39.17;;;;;;;;;;5026451;28;20583;-75
2023/04/17 06:54:16;;;;;;;76.93;40.78;;;;;;;;;;5026472;28;20092;-75
2023/04/17 06:56:42;;;;;;;80.13;40.38;;;;;;;;;;5027382;28;20064;-74
2023/04/17 06:59:08;;;;;;;97.72;40.85;;;;;;;;;;5044203;28;20045;-75
2023/04/17 07:01:36;;;;;;;70.55;37.20;;;;;;;;;;5025710;28;20041;-74
2023/04/17 07:04:02;;;;;;;74.88;38.83;;;;;;;;;;5025115;28;20052;-75
2023/04/17 07:06:28;;;;;;;69.90;37.50;;;;;;;;;;5026141;28;20053;-75
2023/04/17 07:08:54;;;;;;;69.47;36.80;;;;;;;;;;5027299;28;20141;-76
2023/04/17 07:11:20;;;;;;;64.10;35.58;;;;;;;;;;5010085;28;20040;-75
2023/04/17 07:13:46;;;;;;;59.20;35.72;;;;;;;;;;5027351;28;20564;-75
2023/04/17 07:16:12;;;;;;;63.58;35.50;;;;;;;;;;5025035;28;20094;-76
2023/04/17 07:18:38;;;;;;;65.28;37.00;;;;;;;;;;5027007;28;20063;-75
2023/04/17 07:21:04;;;;;;;59.85;35.33;;;;;;;;;;5041857;28;20045;-75
2023/04/17 07:23:33;;;;;;;58.25;34.08;;;;;;;;;;5026900;28;20524;-76
2023/04/17 07:25:59;;;;;;;54.70;33.22;;;;;;;;;;5025473;28;20044;-75
2023/04/17 07:28:25;;;;;;;60.55;33.42;;;;;;;;;;5012800;28;20107;-75
2023/04/17 07:30:53;;;;;;;53.88;33.42;;;;;;;;;;5048747;28;20099;-75
2023/04/17 07:33:20;;;;;;;57.15;34.22;;;;;;;;;;5029711;28;20055;-75
2023/04/17 07:35:46;;;;;;;52.20;32.40;;;;;;;;;;5047541;28;20578;-75
2023/04/17 07:38:12;;;;;;;48.72;31.38;;;;;;;;;;5029030;28;20480;-76
2023/04/17 07:40:38;;;;;;;46.28;31.38;;;;;;;;;;5030271;28;20041;-75
2023/04/17 07:43:04;;;;;;;45.35;30.98;;;;;;;;;;5029415;28;20119;-75
2023/04/17 07:45:32;;;;;;;56.65;33.35;;;;;;;;;;5013293;28;20045;-75
2023/04/17 07:47:58;;;;;;;49.92;33.05;;;;;;;;;;5029370;28;20049;-74
2023/04/17 07:50:24;;;;;;;48.40;33.03;;;;;;;;;;5029219;28;20048;-75
2023/04/17 07:52:50;;;;;;;47.45;32.58;;;;;;;;;;5029640;28;20059;-75
2023/04/17 07:55:16;;;;;;;50.20;31.90;;;;;;;;;;5012398;28;20832;-74
2023/04/17 07:57:45;;;;;;;45.65;31.63;;;;;;;;;;5013578;28;20041;-75
2023/04/17 08:00:15;;;;;;;49.72;31.38;;;;;;;;;;5028046;28;20111;-74
2023/04/17 08:02:41;;;;;;;46.58;31.75;;;;;;;;;;5029770;28;20080;-74
2023/04/17 08:05:08;;;;;;;47.55;31.88;;;;;;;;;;5029588;28;20056;-75
2023/04/17 08:07:34;;;;;;;47.58;31.63;;;;;;;;;;5028069;28;20045;-75
2023/04/17 08:10:00;;;;;;;47.20;32.55;;;;;;;;;;5029402;28;20045;-75
2023/04/17 08:12:26;;;;;;;44.72;31.52;;;;;;;;;;5028580;28;20071;-75
2023/04/17 08:14:52;;;;;;;54.33;32.45;;;;;;;;;;5030342;28;20037;-74
2023/04/17 08:17:21;;;;;;;43.53;31.17;;;;;;;;;;5044953;28;20041;-74
2023/04/17 08:19:56;;;;;;;48.63;31.50;;;;;;;;;;5030418;28;20451;-75
2023/04/17 08:22:23;;;;;;;47.30;31.92;;;;;;;;;;5028544;28;20570;-75
2023/04/17 08:24:49;;;;;;;44.95;31.48;;;;;;;;;;5029274;28;20056;-75
2023/04/17 08:27:15;;;;;;;44.35;30.77;;;;;;;;;;5047035;28;20033;-76
2023/04/17 08:29:44;;;;;;;43.17;30.83;;;;;;;;;;5028178;28;20068;-75
2023/04/17 08:32:10;;;;;;;42.22;32.47;;;;;;;;;;5029547;28;20203;-75
2023/04/17 08:34:37;;;;;;;43.92;31.23;;;;;;;;;;5012275;28;20136;-74
2023/04/17 08:37:03;;;;;;;40.90;30.85;;;;;;;;;;5045982;28;20033;-75
2023/04/17 08:39:30;;;;;;;45.05;30.52;;;;;;;;;;5023904;28;20414;-75
2023/04/17 08:42:00;;;;;;;42.35;31.38;;;;;;;;;;5028204;28;20094;-75
2023/04/17 08:44:27;;;;;;;45.85;31.02;;;;;;;;;;5029530;28;20053;-75
2023/04/17 08:46:55;;;;;;;41.58;30.35;;;;;;;;;;5045644;28;20146;-76
2023/04/17 08:49:21;;;;;;;41.03;30.30;;;;;;;;;;5030215;28;20127;-75
2023/04/17 08:51:47;;;;;;;43.30;27.77;;;;;;;;;;5044138;28;20517;-76
2023/04/17 08:54:13;;;;;;;36.40;26.88;;;;;;;;;;5029342;28;20047;-75
2023/04/17 08:56:39;;;;;;;37.17;27.63;;;;;;;;;;5011425;28;20135;-74
2023/04/17 08:59:05;;;;;;;34.40;26.13;;;;;;;;;;5029322;28;20614;-75
2023/04/17 09:01:33;;;;;;;34.58;24.98;;;;;;;;;;5028634;28;20084;-76
2023/04/17 09:03:59;;;;;;;32.67;25.87;;;;;;;;;;5028114;28;20135;-76
2023/04/17 09:06:26;;;;;;;31.95;23.73;;;;;;;;;;5028372;28;20053;-74
2023/04/17 09:08:57;;;;;;;29.08;22.92;;;;;;;;;;5027828;28;20056;-75
2023/04/17 09:11:23;;;;;;;31.58;23.40;;;;;;;;;;5027907;28;20052;-76
2023/04/17 09:13:49;;;;;;;29.67;22.83;;;;;;;;;;5028043;28;20037;-76
2023/04/17 09:16:15;;;;;;;30.50;22.77;;;;;;;;;;5027907;28;20052;-76
2023/04/17 09:19:03;;;;;;;29.67;22.17;;;;;;;;;;5044598;28;20045;-77
2023/04/17 09:21:28;;;;;;;28.85;21.55;;;;;;;;;;5025775;28;20079;-76
2023/04/17 09:23:55;;;;;;;30.15;21.00;;;;;;;;;;5046153;28;20053;-76
2023/04/17 09:26:30;;;;;;;30.23;21.52;;;;;;;;;;5010963;28;20049;-75
2023/04/17 09:29:03;;;;;;;27.25;20.27;;;;;;;;;;5046877;28;20053;-76
2023/04/17 09:31:30;;;;;;;27.05;20.23;;;;;;;;;;5034123;28;20911;-77
2023/04/17 09:34:12;;;;;;;26.45;20.00;;;;;;;;;;5045194;28;20562;-77
2023/04/17 09:36:40;;;;;;;28.85;19.55;;;;;;;;;;5017805;28;20052;-75
2023/04/17 09:39:17;;;;;;;28.95;19.20;;;;;;;;;;5027311;28;20056;-76
2023/04/17 09:41:44;;;;;;;25.85;19.55;;;;;;;;;;5046348;28;20045;-76
2023/04/17 09:44:11;;;;;;;22.75;18.08;;;;;;;;;;5010745;28;20044;-75
2023/04/17 09:46:46;;;;;;;25.08;19.02;;;;;;;;;;5027966;28;20049;-76
2023/04/17 09:49:17;;;;;;;25.02;18.27;;;;;;;;;;5016526;28;20050;-75
2023/04/17 09:51:43;;;;;;;23.70;18.02;;;;;;;;;;5025552;28;20095;-75
2023/04/17 09:54:10;;;;;;;25.10;18.15;;;;;;;;;;5028007;28;20044;-76
2023/04/17 09:56:37;;;;;;;27.65;19.00;;;;;;;;;;5026645;28;20103;-75
2023/04/17 09:59:04;;;;;;;23.77;18.20;;;;;;;;;;5027716;28;20037;-76
2023/04/17 10:01:34;;;;;;;27.25;18.70;;;;;;;;;;5044276;28;20036;-76
2023/04/17 10:04:00;;;;;;;25.63;19.02;;;;;;;;;;5027955;28;20055;-76
2023/04/17 10:06:27;;;;;;;27.00;18.17;;;;;;;;;;5027090;28;20052;-75
2023/04/17 10:08:53;;;;;;;25.67;18.30;;;;;;;;;;5044981;28;20045;-76
2023/04/17 10:11:19;;;;;;;25.77;18.83;;;;;;;;;;5026906;28;20057;-76
2023/04/17 10:13:46;;;;;;;25.05;18.30;;;;;;;;;;5026516;28;20465;-76
2023/04/17 10:16:13;;;;;;;25.00;18.45;;;;;;;;;;5027527;28;20045;-76
2023/04/17 10:18:39;;;;;;;24.08;18.17;;;;;;;;;;5026434;28;20554;-76
2023/04/17 10:21:31;;;;;;;25.17;18.15;;;;;;;;;;5045236;28;20431;-76
2023/04/17 10:23:58;;;;;;;25.15;17.70;;;;;;;;;;5024932;28;20057;-76
2023/04/17 10:26:24;;;;;;;23.52;18.42;;;;;;;;;;5026077;28;20056;-76
2023/04/17 10:28:51;;;;;;;24.35;17.38;;;;;;;;;;5027703;28;20055;-75
2023/04/17 10:31:17;;;;;;;29.00;17.87;;;;;;;;;;5026541;28;20041;-77
2023/04/17 10:33:51;;;;;;;26.00;18.00;;;;;;;;;;5044668;28;20045;-76
2023/04/17 10:36:36;;;;;;;24.80;16.70;;;;;;;;;;5013791;28;20052;-76
2023/04/17 10:39:12;;;;;;;31.92;17.55;;;;;;;;;;5044729;28;20421;-76
2023/04/17 10:42:07;;;;;;;32.80;17.88;;;;;;;;;;5010730;28;20052;-76
2023/04/17 10:44:34;;;;;;;22.83;15.65;;;;;;;;;;5005669;28;20053;-76
2023/04/17 10:47:06;;;;;;;23.10;16.63;;;;;;;;;;5026709;28;20045;-76
2023/04/17 10:49:49;;;;;;;20.67;16.13;;;;;;;;;;5026565;28;20056;-76
2023/04/17 10:52:37;;;;;;;23.75;16.38;;;;;;;;;;5014286;28;20041;-76
2023/04/17 10:55:04;;;;;;;21.67;16.25;;;;;;;;;;5044532;28;20123;-75
2023/04/17 10:57:49;;;;;;;23.27;17.10;;;;;;;;;;5044502;28;20041;-75
2023/04/17 11:00:15;;;;;;;23.52;16.77;;;;;;;;;;5026856;28;20049;-76
2023/04/17 11:02:49;;;;;;;28.05;16.73;;;;;;;;;;5029231;28;20056;-76
2023/04/17 11:05:17;;;;;;;23.70;17.15;;;;;;;;;;5030136;28;20055;-76
2023/04/17 11:07:43;;;;;;;26.42;17.20;;;;;;;;;;5014106;28;20045;-76
2023/04/17 11:10:09;;;;;;;23.35;16.13;;;;;;;;;;5029175;28;20037;-76
2023/04/17 11:12:38;;;;;;;21.23;16.00;;;;;;;;;;5048887;28;20044;-77
2023/04/17 11:15:05;;;;;;;22.67;16.75;;;;;;;;;;5047927;28;20080;-75
2023/04/17 11:17:31;;;;;;;23.33;16.52;;;;;;;;;;5048677;28;20683;-77
2023/04/17 11:19:57;;;;;;;23.58;16.17;;;;;;;;;;5030590;28;20136;-75
2023/04/17 11:22:23;;;;;;;24.30;16.80;;;;;;;;;;5029771;28;20052;-76
2023/04/17 11:24:52;;;;;;;22.90;15.85;;;;;;;;;;5048730;28;20095;-75
2023/04/17 11:27:19;;;;;;;27.17;16.35;;;;;;;;;;5029691;28;20107;-75
2023/04/17 11:29:45;;;;;;;22.45;14.85;;;;;;;;;;5030598;28;20052;-74
2023/04/17 11:32:11;;;;;;;22.23;14.57;;;;;;;;;;5011930;28;20051;-76
2023/04/17 11:34:37;;;;;;;19.95;14.27;;;;;;;;;;5030451;28;20052;-75
2023/04/17 11:37:04;;;;;;;20.85;15.10;;;;;;;;;;5047150;28;20044;-75
2023/04/17 11:39:31;;;;;;;24.33;15.50;;;;;;;;;;5048283;28;20072;-76
2023/04/17 11:41:57;;;;;;;21.75;15.02;;;;;;;;;;5013476;28;20516;-75
2023/04/17 11:44:23;;;;;;;19.33;14.50;;;;;;;;;;5046574;28;20049;-75
2023/04/17 11:46:53;;;;;;;20.77;13.13;;;;;;;;;;5029526;28;20060;-75
2023/04/17 11:49:29;;;;;;;18.55;12.07;;;;;;;;;;5029676;28;20590;-76
2023/04/17 11:51:55;;;;;;;21.33;14.48;;;;;;;;;;5028769;28;20455;-76
2023/04/17 11:54:35;;;;;;;17.33;13.25;;;;;;;;;;5046156;28;20091;-77
2023/04/17 11:57:01;;;;;;;23.40;14.35;;;;;;;;;;5046221;28;20045;-76
2023/04/17 11:59:30;;;;;;;20.55;15.10;;;;;;;;;;5048248;28;20041;-76
2023/04/17 12:01:59;;;;;;;22.10;15.13;;;;;;;;;;5027612;28;20045;-76
2023/04/17 12:04:27;;;;;;;24.75;15.63;;;;;;;;;;5046751;28;20107;-76
2023/04/17 12:06:53;;;;;;;23.52;15.30;;;;;;;;;;5027838;28;20056;-76
2023/04/17 12:09:20;;;;;;;23.77;15.88;;;;;;;;;;5030506;28;20052;-76
2023/04/17 12:11:46;;;;;;;22.13;15.15;;;;;;;;;;5029532;28;20037;-76
2023/04/17 12:14:12;;;;;;;21.77;15.30;;;;;;;;;;5047214;28;20037;-75
2023/04/17 12:16:38;;;;;;;22.58;14.35;;;;;;;;;;5029992;28;20037;-76
2023/04/17 12:19:04;;;;;;;21.38;15.00;;;;;;;;;;5028648;28;20072;-76
2023/04/17 12:21:36;;;;;;;21.60;15.82;;;;;;;;;;5013066;28;20041;-72
2023/04/17 12:24:02;;;;;;;22.55;15.95;;;;;;;;;;5027733;28;20432;-76
2023/04/17 12:26:28;;;;;;;21.33;15.57;;;;;;;;;;5028951;28;20524;-76
2023/04/17 12:28:56;;;;;;;24.17;16.35;;;;;;;;;;5028423;28;20037;-76
2023/04/17 12:31:22;;;;;;;26.52;17.42;;;;;;;;;;4993511;28;20073;-75
2023/04/17 12:33:48;;;;;;;21.10;15.35;;;;;;;;;;5037370;28;20088;-76
2023/04/17 12:36:14;;;;;;;22.83;15.18;;;;;;;;;;5034216;28;20059;-76
2023/04/17 12:38:41;;;;;;;21.27;15.43;;;;;;;;;;5028063;28;20053;-77
2023/04/17 12:41:08;;;;;;;24.63;14.65;;;;;;;;;;5046455;28;20049;-76
2023/04/17 12:43:34;;;;;;;22.67;15.20;;;;;;;;;;5029337;28;20049;-76
2023/04/17 12:46:00;;;;;;;22.30;15.43;;;;;;;;;;5046626;28;20045;-76
2023/04/17 12:48:26;;;;;;;27.27;15.77;;;;;;;;;;5028575;28;20049;-77
2023/04/17 12:50:53;;;;;;;21.77;14.95;;;;;;;;;;5028973;28;20592;-76
2023/04/17 12:53:19;;;;;;;25.92;16.05;;;;;;;;;;5028156;28;20068;-77
2023/04/17 12:55:45;;;;;;;22.58;14.70;;;;;;;;;;5011698;28;20047;-75
2023/04/17 12:58:12;;;;;;;21.13;14.68;;;;;;;;;;5028474;28;20600;-76
2023/04/17 13:00:39;;;;;;;20.30;15.23;;;;;;;;;;5027774;28;20135;-75
2023/04/17 13:03:05;;;;;;;22.60;14.45;;;;;;;;;;5027563;28;20501;-77
2023/04/17 13:05:31;;;;;;;21.73;14.25;;;;;;;;;;5012427;28;20584;-77
2023/04/17 13:07:57;;;;;;;18.65;14.38;;;;;;;;;;5044764;28;20144;-76
2023/04/17 13:10:23;;;;;;;19.65;13.50;;;;;;;;;;5046711;28;20037;-76
2023/04/17 13:12:49;;;;;;;18.08;13.95;;;;;;;;;;5028057;28;20524;-76
2023/04/17 13:15:15;;;;;;;23.20;14.63;;;;;;;;;;5046931;28;20044;-76
2023/04/17 13:17:42;;;;;;;19.13;14.80;;;;;;;;;;5027233;28;20041;-76
2023/04/17 13:20:09;;;;;;;21.00;15.02;;;;;;;;;;5011776;28;20052;-75
2023/04/17 13:22:35;;;;;;;26.42;15.65;;;;;;;;;;5046175;28;20677;-76
2023/04/17 13:25:01;;;;;;;19.05;13.82;;;;;;;;;;5026443;28;20111;-77
2023/04/17 13:27:27;;;;;;;21.58;13.43;;;;;;;;;;5028063;28;20063;-76
2023/04/17 13:29:54;;;;;;;18.80;12.60;;;;;;;;;;5027660;28;20389;-76
2023/04/17 13:32:20;;;;;;;20.77;12.35;;;;;;;;;;5046185;28;20041;-76
2023/04/17 13:34:46;;;;;;;17.30;11.70;;;;;;;;;;5045528;28;20115;-76
2023/04/17 13:37:13;;;;;;;18.50;13.85;;;;;;;;;;5027305;28;20988;-77
2023/04/17 13:39:39;;;;;;;17.90;13.13;;;;;;;;;;5027733;28;20103;-76
2023/04/17 13:42:05;;;;;;;23.92;15.98;;;;;;;;;;5027143;28;20021;-76
2023/04/17 13:44:31;;;;;;;24.98;16.58;;;;;;;;;;5028563;28;20431;-75
2023/04/17 13:46:58;;;;;;;22.58;17.05;;;;;;;;;;5026528;28;20069;-76
2023/04/17 13:49:25;;;;;;;17.27;13.73;;;;;;;;;;5028596;28;20049;-76
2023/04/17 13:51:51;;;;;;;17.75;13.15;;;;;;;;;;5025904;28;21028;-76
2023/04/17 13:54:17;;;;;;;18.25;12.80;;;;;;;;;;5028402;28;20045;-76
2023/04/17 13:56:44;;;;;;;15.98;11.27;;;;;;;;;;5027309;28;20040;-76
2023/04/17 13:59:11;;;;;;;17.95;10.90;;;;;;;;;;5027982;28;20053;-76
2023/04/17 14:01:37;;;;;;;22.25;9.50;;;;;;;;;;5027179;28;20041;-76
2023/04/17 14:04:03;;;;;;;16.73;9.98;;;;;;;;;;5026260;28;20052;-76
2023/04/17 14:06:30;;;;;;;14.05;10.23;;;;;;;;;;5027628;28;20037;-76
2023/04/17 14:08:56;;;;;;;16.10;10.55;;;;;;;;;;5027072;28;20432;-76
2023/04/17 14:11:23;;;;;;;17.40;13.07;;;;;;;;;;5028160;28;20045;-76
2023/04/17 14:13:49;;;;;;;14.55;10.48;;;;;;;;;;5027467;28;20048;-76